sensor_id;sensor_type;location;lat;lon;timestamp;P1;durP1;ratioP1;P2;durP2;ratioP2
22131;SDS011;11232;51.748;19.390;2022-10-17T00:00:20;39.95;;;23.20;;
22131;SDS011;11232;51.748;19.390;2022-10-17T00:02:46;39.60;;;23.25;;
22131;SDS011;11232;51.748;19.390;2022-10-17T00:05:12;38.65;;;22.88;;
22131;SDS011;11232;51.748;19.390;2022-10-17T00:07:37;39.40;;;23.55;;
22131;SDS011;11232;51.748;19.390;2022-10-17T00:10:03;37.20;;;23.40;;
22131;SDS011;11232;51.748;19.390;2022-10-17T00:12:30;40.13;;;23.40;;
22131;SDS011;11232;51.748;19.390;2022-10-17T00:14:56;39.03;;;23.52;;
22131;SDS011;11232;51.748;19.390;2022-10-17T00:17:21;41.05;;;23.58;;
22131;SDS011;11232;51.748;19.390;2022-10-17T00:19:47;37.75;;;22.73;;
22131;SDS011;11232;51.748;19.390;2022-10-17T00:22:13;37.65;;;22.48;;
22131;SDS011;11232;51.748;19.390;2022-10-17T00:24:38;40.92;;;23.40;;
22131;SDS011;11232;51.748;19.390;2022-10-17T00:27:04;36.00;;;22.50;;
22131;SDS011;11232;51.748;19.390;2022-10-17T00:29:29;35.65;;;23.13;;
22131;SDS011;11232;51.748;19.390;2022-10-17T00:31:55;36.17;;;22.17;;
22131;SDS011;11232;51.748;19.390;2022-10-17T00:34:21;42.95;;;23.48;;
22131;SDS011;11232;51.748;19.390;2022-10-17T00:36:48;41.28;;;23.33;;
22131;SDS011;11232;51.748;19.390;2022-10-17T00:39:14;36.65;;;23.88;;
22131;SDS011;11232;51.748;19.390;2022-10-17T00:41:39;39.55;;;22.75;;
22131;SDS011;11232;51.748;19.390;2022-10-17T00:44:06;37.65;;;23.13;;
22131;SDS011;11232;51.748;19.390;2022-10-17T00:46:50;42.67;;;23.23;;
22131;SDS011;11232;51.748;19.390;2022-10-17T00:49:16;36.42;;;23.45;;
22131;SDS011;11232;51.748;19.390;2022-10-17T00:51:44;38.45;;;22.92;;
22131;SDS011;11232;51.748;19.390;2022-10-17T00:54:13;38.58;;;23.92;;
22131;SDS011;11232;51.748;19.390;2022-10-17T00:56:41;37.28;;;23.42;;
22131;SDS011;11232;51.748;19.390;2022-10-17T00:59:08;37.25;;;23.75;;
22131;SDS011;11232;51.748;19.390;2022-10-17T01:01:36;37.30;;;23.35;;
22131;SDS011;11232;51.748;19.390;2022-10-17T01:04:02;38.20;;;24.02;;
22131;SDS011;11232;51.748;19.390;2022-10-17T01:06:28;39.38;;;22.48;;
22131;SDS011;11232;51.748;19.390;2022-10-17T01:08:53;38.15;;;23.33;;
22131;SDS011;11232;51.748;19.390;2022-10-17T01:13:57;40.33;;;23.70;;
22131;SDS011;11232;51.748;19.390;2022-10-17T01:22:06;43.55;;;25.55;;
22131;SDS011;11232;51.748;19.390;2022-10-17T01:24:54;37.95;;;24.17;;
22131;SDS011;11232;51.748;19.390;2022-10-17T01:38:24;43.72;;;24.48;;
22131;SDS011;11232;51.748;19.390;2022-10-17T01:43:25;40.83;;;24.50;;
22131;SDS011;11232;51.748;19.390;2022-10-17T01:45:58;41.88;;;24.52;;
22131;SDS011;11232;51.748;19.390;2022-10-17T01:48:30;38.45;;;24.27;;
22131;SDS011;11232;51.748;19.390;2022-10-17T01:51:00;41.88;;;25.17;;
22131;SDS011;11232;51.748;19.390;2022-10-17T01:53:33;42.17;;;24.48;;
22131;SDS011;11232;51.748;19.390;2022-10-17T01:56:04;39.67;;;24.63;;
22131;SDS011;11232;51.748;19.390;2022-10-17T01:58:32;43.88;;;26.02;;
22131;SDS011;11232;51.748;19.390;2022-10-17T02:01:03;41.90;;;26.13;;
22131;SDS011;11232;51.748;19.390;2022-10-17T02:03:31;40.78;;;25.25;;
22131;SDS011;11232;51.748;19.390;2022-10-17T02:05:58;43.58;;;25.20;;
22131;SDS011;11232;51.748;19.390;2022-10-17T02:08:28;38.50;;;24.73;;
22131;SDS011;11232;51.748;19.390;2022-10-17T02:11:06;41.05;;;26.00;;
22131;SDS011;11232;51.748;19.390;2022-10-17T02:17:37;42.28;;;24.92;;
22131;SDS011;11232;51.748;19.390;2022-10-17T02:23:30;40.85;;;24.92;;
22131;SDS011;11232;51.748;19.390;2022-10-17T02:29:06;39.88;;;24.27;;
22131;SDS011;11232;51.748;19.390;2022-10-17T02:31:50;43.08;;;25.52;;
22131;SDS011;11232;51.748;19.390;2022-10-17T02:34:23;44.03;;;24.67;;
22131;SDS011;11232;51.748;19.390;2022-10-17T02:36:54;41.40;;;24.77;;
22131;SDS011;11232;51.748;19.390;2022-10-17T02:39:23;41.45;;;25.60;;
22131;SDS011;11232;51.748;19.390;2022-10-17T02:41:50;41.00;;;25.02;;
22131;SDS011;11232;51.748;19.390;2022-10-17T02:44:17;36.63;;;24.20;;
22131;SDS011;11232;51.748;19.390;2022-10-17T02:46:46;38.85;;;24.73;;
22131;SDS011;11232;51.748;19.390;2022-10-17T02:49:23;42.25;;;25.02;;
22131;SDS011;11232;51.748;19.390;2022-10-17T02:52:00;41.63;;;24.40;;
22131;SDS011;11232;51.748;19.390;2022-10-17T02:54:41;38.50;;;24.02;;
22131;SDS011;11232;51.748;19.390;2022-10-17T02:57:13;45.38;;;24.67;;
22131;SDS011;11232;51.748;19.390;2022-10-17T02:59:45;40.25;;;23.63;;
22131;SDS011;11232;51.748;19.390;2022-10-17T03:02:12;40.53;;;24.30;;
22131;SDS011;11232;51.748;19.390;2022-10-17T03:04:41;38.05;;;24.30;;
22131;SDS011;11232;51.748;19.390;2022-10-17T03:07:07;46.15;;;23.98;;
22131;SDS011;11232;51.748;19.390;2022-10-17T03:09:33;39.70;;;23.92;;
22131;SDS011;11232;51.748;19.390;2022-10-17T03:11:59;38.03;;;24.08;;
22131;SDS011;11232;51.748;19.390;2022-10-17T03:14:24;41.42;;;25.15;;
22131;SDS011;11232;51.748;19.390;2022-10-17T03:16:50;37.72;;;23.88;;
22131;SDS011;11232;51.748;19.390;2022-10-17T03:19:15;39.97;;;24.30;;
22131;SDS011;11232;51.748;19.390;2022-10-17T03:21:41;38.53;;;22.75;;
22131;SDS011;11232;51.748;19.390;2022-10-17T03:24:06;39.47;;;23.88;;
22131;SDS011;11232;51.748;19.390;2022-10-17T03:26:32;38.83;;;23.52;;
22131;SDS011;11232;51.748;19.390;2022-10-17T03:28:58;42.33;;;23.48;;
22131;SDS011;11232;51.748;19.390;2022-10-17T03:31:23;40.05;;;23.77;;
22131;SDS011;11232;51.748;19.390;2022-10-17T03:33:49;42.08;;;23.45;;
22131;SDS011;11232;51.748;19.390;2022-10-17T03:36:16;36.95;;;23.40;;
22131;SDS011;11232;51.748;19.390;2022-10-17T03:38:43;37.20;;;23.27;;
22131;SDS011;11232;51.748;19.390;2022-10-17T03:41:09;37.78;;;22.13;;
22131;SDS011;11232;51.748;19.390;2022-10-17T03:43:35;40.80;;;22.73;;
22131;SDS011;11232;51.748;19.390;2022-10-17T03:46:01;40.90;;;23.33;;
22131;SDS011;11232;51.748;19.390;2022-10-17T03:48:27;38.20;;;22.73;;
22131;SDS011;11232;51.748;19.390;2022-10-17T03:50:57;42.63;;;23.33;;
22131;SDS011;11232;51.748;19.390;2022-10-17T03:53:25;43.30;;;24.38;;
22131;SDS011;11232;51.748;19.390;2022-10-17T03:55:51;42.22;;;23.20;;
22131;SDS011;11232;51.748;19.390;2022-10-17T03:58:16;40.97;;;22.98;;
22131;SDS011;11232;51.748;19.390;2022-10-17T04:00:42;38.40;;;22.70;;
22131;SDS011;11232;51.748;19.390;2022-10-17T04:03:07;37.70;;;22.15;;
22131;SDS011;11232;51.748;19.390;2022-10-17T04:05:33;38.67;;;22.40;;
22131;SDS011;11232;51.748;19.390;2022-10-17T04:07:58;38.78;;;22.40;;
22131;SDS011;11232;51.748;19.390;2022-10-17T04:10:24;39.08;;;22.90;;
22131;SDS011;11232;51.748;19.390;2022-10-17T04:12:50;36.88;;;22.40;;
22131;SDS011;11232;51.748;19.390;2022-10-17T04:15:15;39.15;;;22.40;;
22131;SDS011;11232;51.748;19.390;2022-10-17T04:17:41;41.08;;;21.85;;
22131;SDS011;11232;51.748;19.390;2022-10-17T04:20:06;36.70;;;20.77;;
22131;SDS011;11232;51.748;19.390;2022-10-17T04:22:32;36.60;;;21.65;;
22131;SDS011;11232;51.748;19.390;2022-10-17T04:24:58;36.70;;;22.25;;
22131;SDS011;11232;51.748;19.390;2022-10-17T04:27:24;41.88;;;22.42;;
22131;SDS011;11232;51.748;19.390;2022-10-17T04:29:49;36.80;;;21.92;;
22131;SDS011;11232;51.748;19.390;2022-10-17T04:32:15;35.13;;;22.20;;
22131;SDS011;11232;51.748;19.390;2022-10-17T04:34:41;38.25;;;22.23;;
22131;SDS011;11232;51.748;19.390;2022-10-17T04:37:06;37.00;;;22.55;;
22131;SDS011;11232;51.748;19.390;2022-10-17T04:39:32;39.27;;;22.23;;
22131;SDS011;11232;51.748;19.390;2022-10-17T04:41:58;42.05;;;22.13;;
22131;SDS011;11232;51.748;19.390;2022-10-17T04:44:23;37.60;;;22.58;;
22131;SDS011;11232;51.748;19.390;2022-10-17T04:46:49;36.00;;;22.77;;
22131;SDS011;11232;51.748;19.390;2022-10-17T04:49:14;37.57;;;22.53;;
22131;SDS011;11232;51.748;19.390;2022-10-17T04:51:40;36.60;;;22.37;;
22131;SDS011;11232;51.748;19.390;2022-10-17T04:54:05;38.43;;;22.57;;
22131;SDS011;11232;51.748;19.390;2022-10-17T04:56:31;37.53;;;22.40;;
22131;SDS011;11232;51.748;19.390;2022-10-17T04:58:57;36.50;;;21.90;;
22131;SDS011;11232;51.748;19.390;2022-10-17T05:01:24;38.07;;;21.47;;
22131;SDS011;11232;51.748;19.390;2022-10-17T05:03:50;37.40;;;22.03;;
22131;SDS011;11232;51.748;19.390;2022-10-17T05:06:19;37.22;;;22.50;;
22131;SDS011;11232;51.748;19.390;2022-10-17T05:08:46;39.72;;;21.45;;
22131;SDS011;11232;51.748;19.390;2022-10-17T05:11:20;35.90;;;22.03;;
22131;SDS011;11232;51.748;19.390;2022-10-17T05:13:57;34.30;;;20.90;;
22131;SDS011;11232;51.748;19.390;2022-10-17T05:16:24;33.63;;;20.80;;
22131;SDS011;11232;51.748;19.390;2022-10-17T05:18:52;36.30;;;21.47;;
22131;SDS011;11232;51.748;19.390;2022-10-17T05:21:19;33.53;;;21.23;;
22131;SDS011;11232;51.748;19.390;2022-10-17T05:23:46;35.92;;;21.48;;
22131;SDS011;11232;51.748;19.390;2022-10-17T05:26:12;34.72;;;20.02;;
22131;SDS011;11232;51.748;19.390;2022-10-17T05:28:38;35.87;;;21.47;;
22131;SDS011;11232;51.748;19.390;2022-10-17T05:31:04;36.90;;;21.43;;
22131;SDS011;11232;51.748;19.390;2022-10-17T05:33:30;37.73;;;20.93;;
22131;SDS011;11232;51.748;19.390;2022-10-17T05:35:56;33.28;;;21.48;;
22131;SDS011;11232;51.748;19.390;2022-10-17T05:38:22;35.50;;;21.23;;
22131;SDS011;11232;51.748;19.390;2022-10-17T05:40:48;35.70;;;21.15;;
22131;SDS011;11232;51.748;19.390;2022-10-17T05:43:14;36.38;;;20.75;;
22131;SDS011;11232;51.748;19.390;2022-10-17T05:45:39;38.47;;;20.75;;
22131;SDS011;11232;51.748;19.390;2022-10-17T05:48:05;35.95;;;21.40;;
22131;SDS011;11232;51.748;19.390;2022-10-17T05:50:31;33.97;;;20.45;;
22131;SDS011;11232;51.748;19.390;2022-10-17T05:52:56;38.40;;;21.50;;
22131;SDS011;11232;51.748;19.390;2022-10-17T05:55:22;34.38;;;20.95;;
22131;SDS011;11232;51.748;19.390;2022-10-17T05:57:48;31.15;;;19.77;;
22131;SDS011;11232;51.748;19.390;2022-10-17T06:00:14;35.20;;;20.75;;
22131;SDS011;11232;51.748;19.390;2022-10-17T06:02:40;36.25;;;20.38;;
22131;SDS011;11232;51.748;19.390;2022-10-17T06:05:06;37.63;;;20.50;;
22131;SDS011;11232;51.748;19.390;2022-10-17T06:07:32;37.28;;;20.67;;
22131;SDS011;11232;51.748;19.390;2022-10-17T06:09:57;38.10;;;19.85;;
22131;SDS011;11232;51.748;19.390;2022-10-17T06:12:23;34.20;;;19.55;;
22131;SDS011;11232;51.748;19.390;2022-10-17T06:14:49;33.92;;;19.75;;
22131;SDS011;11232;51.748;19.390;2022-10-17T06:17:14;35.00;;;18.85;;
22131;SDS011;11232;51.748;19.390;2022-10-17T06:19:40;30.33;;;19.40;;
22131;SDS011;11232;51.748;19.390;2022-10-17T06:22:06;36.28;;;19.92;;
22131;SDS011;11232;51.748;19.390;2022-10-17T06:24:31;28.52;;;19.20;;
22131;SDS011;11232;51.748;19.390;2022-10-17T06:26:57;29.23;;;18.08;;
22131;SDS011;11232;51.748;19.390;2022-10-17T06:29:22;30.58;;;18.33;;
22131;SDS011;11232;51.748;19.390;2022-10-17T06:31:48;33.15;;;17.48;;
22131;SDS011;11232;51.748;19.390;2022-10-17T06:34:14;28.40;;;17.63;;
22131;SDS011;11232;51.748;19.390;2022-10-17T06:36:40;26.60;;;16.70;;
22131;SDS011;11232;51.748;19.390;2022-10-17T06:39:05;34.03;;;17.23;;
22131;SDS011;11232;51.748;19.390;2022-10-17T06:41:31;25.08;;;16.35;;
22131;SDS011;11232;51.748;19.390;2022-10-17T06:43:56;27.25;;;15.98;;
22131;SDS011;11232;51.748;19.390;2022-10-17T06:46:22;29.33;;;15.98;;
22131;SDS011;11232;51.748;19.390;2022-10-17T06:48:50;25.17;;;15.20;;
22131;SDS011;11232;51.748;19.390;2022-10-17T06:51:16;21.27;;;14.68;;
22131;SDS011;11232;51.748;19.390;2022-10-17T06:53:42;22.40;;;14.93;;
22131;SDS011;11232;51.748;19.390;2022-10-17T06:56:07;25.70;;;15.18;;
22131;SDS011;11232;51.748;19.390;2022-10-17T06:58:34;21.08;;;14.90;;
22131;SDS011;11232;51.748;19.390;2022-10-17T07:01:04;26.02;;;14.82;;
22131;SDS011;11232;51.748;19.390;2022-10-17T07:03:31;21.27;;;13.73;;
22131;SDS011;11232;51.748;19.390;2022-10-17T07:05:57;22.75;;;14.38;;
22131;SDS011;11232;51.748;19.390;2022-10-17T07:08:23;24.33;;;14.93;;
22131;SDS011;11232;51.748;19.390;2022-10-17T07:10:49;24.13;;;14.25;;
22131;SDS011;11232;51.748;19.390;2022-10-17T07:13:15;19.23;;;13.90;;
22131;SDS011;11232;51.748;19.390;2022-10-17T07:15:41;22.00;;;13.32;;
22131;SDS011;11232;51.748;19.390;2022-10-17T07:18:07;22.27;;;14.23;;
22131;SDS011;11232;51.748;19.390;2022-10-17T07:20:32;21.73;;;13.57;;
22131;SDS011;11232;51.748;19.390;2022-10-17T07:22:58;19.42;;;13.25;;
22131;SDS011;11232;51.748;19.390;2022-10-17T07:25:24;18.45;;;13.77;;
22131;SDS011;11232;51.748;19.390;2022-10-17T07:27:50;23.08;;;14.55;;
22131;SDS011;11232;51.748;19.390;2022-10-17T07:30:16;17.75;;;13.15;;
22131;SDS011;11232;51.748;19.390;2022-10-17T07:32:43;18.17;;;12.95;;
22131;SDS011;11232;51.748;19.390;2022-10-17T07:35:09;18.42;;;12.63;;
22131;SDS011;11232;51.748;19.390;2022-10-17T07:37:36;18.85;;;12.82;;
22131;SDS011;11232;51.748;19.390;2022-10-17T07:40:02;15.55;;;12.43;;
22131;SDS011;11232;51.748;19.390;2022-10-17T07:42:30;17.60;;;11.90;;
22131;SDS011;11232;51.748;19.390;2022-10-17T07:44:56;15.60;;;12.20;;
22131;SDS011;11232;51.748;19.390;2022-10-17T07:47:22;19.63;;;12.13;;
22131;SDS011;11232;51.748;19.390;2022-10-17T07:49:47;19.40;;;12.63;;
22131;SDS011;11232;51.748;19.390;2022-10-17T07:52:13;19.20;;;12.27;;
22131;SDS011;11232;51.748;19.390;2022-10-17T07:54:39;17.40;;;12.48;;
22131;SDS011;11232;51.748;19.390;2022-10-17T07:57:05;15.77;;;12.15;;
22131;SDS011;11232;51.748;19.390;2022-10-17T07:59:31;14.80;;;11.55;;
22131;SDS011;11232;51.748;19.390;2022-10-17T08:01:58;18.67;;;12.02;;
22131;SDS011;11232;51.748;19.390;2022-10-17T08:04:24;17.92;;;12.63;;
22131;SDS011;11232;51.748;19.390;2022-10-17T08:06:50;19.92;;;12.60;;
22131;SDS011;11232;51.748;19.390;2022-10-17T08:09:16;15.07;;;12.50;;
22131;SDS011;11232;51.748;19.390;2022-10-17T08:11:42;17.25;;;11.55;;
22131;SDS011;11232;51.748;19.390;2022-10-17T08:14:08;15.55;;;12.32;;
22131;SDS011;11232;51.748;19.390;2022-10-17T08:16:34;13.48;;;11.63;;
22131;SDS011;11232;51.748;19.390;2022-10-17T08:19:00;15.27;;;12.13;;
22131;SDS011;11232;51.748;19.390;2022-10-17T08:21:26;16.77;;;11.60;;
22131;SDS011;11232;51.748;19.390;2022-10-17T08:23:52;14.63;;;11.65;;
22131;SDS011;11232;51.748;19.390;2022-10-17T08:26:18;16.63;;;11.80;;
22131;SDS011;11232;51.748;19.390;2022-10-17T08:28:44;13.77;;;11.77;;
22131;SDS011;11232;51.748;19.390;2022-10-17T08:31:11;16.35;;;11.93;;
22131;SDS011;11232;51.748;19.390;2022-10-17T08:33:39;14.88;;;11.55;;
22131;SDS011;11232;51.748;19.390;2022-10-17T08:36:05;16.42;;;11.63;;
22131;SDS011;11232;51.748;19.390;2022-10-17T08:38:33;14.48;;;11.75;;
22131;SDS011;11232;51.748;19.390;2022-10-17T08:41:00;20.10;;;12.35;;
22131;SDS011;11232;51.748;19.390;2022-10-17T08:46:16;15.57;;;12.32;;
22131;SDS011;11232;51.748;19.390;2022-10-17T08:48:44;13.75;;;11.35;;
22131;SDS011;11232;51.748;19.390;2022-10-17T08:51:14;13.60;;;12.02;;
22131;SDS011;11232;51.748;19.390;2022-10-17T08:53:50;13.00;;;11.65;;
22131;SDS011;11232;51.748;19.390;2022-10-17T08:56:52;14.13;;;11.52;;
22131;SDS011;11232;51.748;19.390;2022-10-17T08:59:20;14.32;;;12.32;;
22131;SDS011;11232;51.748;19.390;2022-10-17T09:07:46;14.65;;;11.43;;
22131;SDS011;11232;51.748;19.390;2022-10-17T09:13:16;18.02;;;11.88;;
22131;SDS011;11232;51.748;19.390;2022-10-17T09:16:05;16.70;;;13.15;;
22131;SDS011;11232;51.748;19.390;2022-10-17T09:19:09;13.98;;;11.75;;
22131;SDS011;11232;51.748;19.390;2022-10-17T09:21:42;15.05;;;11.90;;
22131;SDS011;11232;51.748;19.390;2022-10-17T09:24:44;13.55;;;12.15;;
22131;SDS011;11232;51.748;19.390;2022-10-17T09:27:23;12.57;;;11.32;;
22131;SDS011;11232;51.748;19.390;2022-10-17T09:29:53;12.95;;;11.55;;
22131;SDS011;11232;51.748;19.390;2022-10-17T09:32:27;13.48;;;11.43;;
22131;SDS011;11232;51.748;19.390;2022-10-17T09:34:52;22.38;;;11.00;;
22131;SDS011;11232;51.748;19.390;2022-10-17T09:37:18;14.02;;;12.23;;
22131;SDS011;11232;51.748;19.390;2022-10-17T09:39:49;16.10;;;11.85;;
22131;SDS011;11232;51.748;19.390;2022-10-17T09:42:16;16.38;;;11.52;;
22131;SDS011;11232;51.748;19.390;2022-10-17T09:44:50;14.35;;;12.35;;
22131;SDS011;11232;51.748;19.390;2022-10-17T09:50:14;17.48;;;12.65;;
22131;SDS011;11232;51.748;19.390;2022-10-17T09:52:51;16.23;;;13.20;;
22131;SDS011;11232;51.748;19.390;2022-10-17T09:55:25;14.32;;;12.68;;
22131;SDS011;11232;51.748;19.390;2022-10-17T09:58:04;16.20;;;12.27;;
22131;SDS011;11232;51.748;19.390;2022-10-17T10:00:33;14.52;;;11.85;;
22131;SDS011;11232;51.748;19.390;2022-10-17T10:08:48;14.20;;;12.38;;
22131;SDS011;11232;51.748;19.390;2022-10-17T10:11:14;12.80;;;11.50;;
22131;SDS011;11232;51.748;19.390;2022-10-17T10:13:40;16.98;;;11.43;;
22131;SDS011;11232;51.748;19.390;2022-10-17T10:18:41;16.17;;;11.57;;
22131;SDS011;11232;51.748;19.390;2022-10-17T10:21:09;13.25;;;11.85;;
22131;SDS011;11232;51.748;19.390;2022-10-17T10:23:42;13.95;;;12.40;;
22131;SDS011;11232;51.748;19.390;2022-10-17T10:26:20;15.70;;;11.60;;
22131;SDS011;11232;51.748;19.390;2022-10-17T10:28:50;17.52;;;12.73;;
22131;SDS011;11232;51.748;19.390;2022-10-17T10:31:25;15.20;;;12.07;;
22131;SDS011;11232;51.748;19.390;2022-10-17T10:33:56;15.07;;;12.23;;
22131;SDS011;11232;51.748;19.390;2022-10-17T10:36:24;14.93;;;11.85;;
22131;SDS011;11232;51.748;19.390;2022-10-17T10:38:54;16.40;;;12.38;;
22131;SDS011;11232;51.748;19.390;2022-10-17T10:41:21;16.73;;;11.52;;
22131;SDS011;11232;51.748;19.390;2022-10-17T10:43:48;14.40;;;11.50;;
22131;SDS011;11232;51.748;19.390;2022-10-17T10:48:50;13.93;;;11.52;;
22131;SDS011;11232;51.748;19.390;2022-10-17T10:51:23;17.60;;;11.40;;
22131;SDS011;11232;51.748;19.390;2022-10-17T10:56:39;14.50;;;11.20;;
22131;SDS011;11232;51.748;19.390;2022-10-17T10:59:25;11.77;;;10.52;;
22131;SDS011;11232;51.748;19.390;2022-10-17T11:04:47;12.30;;;10.95;;
22131;SDS011;11232;51.748;19.390;2022-10-17T11:10:40;14.35;;;11.25;;
22131;SDS011;11232;51.748;19.390;2022-10-17T11:13:24;19.00;;;11.27;;
22131;SDS011;11232;51.748;19.390;2022-10-17T11:21:52;14.38;;;12.15;;
22131;SDS011;11232;51.748;19.390;2022-10-17T11:27:02;15.60;;;11.40;;
22131;SDS011;11232;51.748;19.390;2022-10-17T11:29:32;15.35;;;10.85;;
22131;SDS011;11232;51.748;19.390;2022-10-17T11:32:02;13.77;;;11.05;;
22131;SDS011;11232;51.748;19.390;2022-10-17T11:34:53;15.25;;;11.55;;
22131;SDS011;11232;51.748;19.390;2022-10-17T11:37:25;14.95;;;11.80;;
22131;SDS011;11232;51.748;19.390;2022-10-17T11:39:58;16.13;;;12.35;;
22131;SDS011;11232;51.748;19.390;2022-10-17T11:42:29;17.15;;;12.30;;
22131;SDS011;11232;51.748;19.390;2022-10-17T11:45:12;14.15;;;10.93;;
22131;SDS011;11232;51.748;19.390;2022-10-17T11:47:45;17.40;;;11.30;;
22131;SDS011;11232;51.748;19.390;2022-10-17T11:52:55;15.77;;;10.70;;
22131;SDS011;11232;51.748;19.390;2022-10-17T11:55:27;16.52;;;11.07;;
22131;SDS011;11232;51.748;19.390;2022-10-17T11:57:58;16.80;;;11.23;;
22131;SDS011;11232;51.748;19.390;2022-10-17T12:06:07;14.98;;;11.63;;
22131;SDS011;11232;51.748;19.390;2022-10-17T12:17:31;15.70;;;11.50;;
22131;SDS011;11232;51.748;19.390;2022-10-17T12:20:25;13.98;;;10.98;;
22131;SDS011;11232;51.748;19.390;2022-10-17T12:25:35;14.98;;;11.70;;
22131;SDS011;11232;51.748;19.390;2022-10-17T12:28:13;16.00;;;11.95;;
22131;SDS011;11232;51.748;19.390;2022-10-17T12:30:55;14.00;;;11.50;;
22131;SDS011;11232;51.748;19.390;2022-10-17T12:33:46;14.48;;;11.35;;
22131;SDS011;11232;51.748;19.390;2022-10-17T12:38:43;17.17;;;11.88;;
22131;SDS011;11232;51.748;19.390;2022-10-17T12:41:10;16.67;;;11.10;;
22131;SDS011;11232;51.748;19.390;2022-10-17T12:43:42;19.40;;;11.73;;
22131;SDS011;11232;51.748;19.390;2022-10-17T12:46:08;16.10;;;10.63;;
22131;SDS011;11232;51.748;19.390;2022-10-17T12:53:51;14.45;;;10.50;;
22131;SDS011;11232;51.748;19.390;2022-10-17T12:59:27;14.10;;;10.43;;
22131;SDS011;11232;51.748;19.390;2022-10-17T13:01:57;15.68;;;11.48;;
22131;SDS011;11232;51.748;19.390;2022-10-17T13:04:24;17.20;;;10.68;;
22131;SDS011;11232;51.748;19.390;2022-10-17T13:06:52;18.38;;;11.32;;
22131;SDS011;11232;51.748;19.390;2022-10-17T13:11:56;17.02;;;11.13;;
22131;SDS011;11232;51.748;19.390;2022-10-17T13:14:25;17.17;;;10.98;;
22131;SDS011;11232;51.748;19.390;2022-10-17T13:16:55;17.08;;;11.05;;
22131;SDS011;11232;51.748;19.390;2022-10-17T13:19:44;18.27;;;11.70;;
22131;SDS011;11232;51.748;19.390;2022-10-17T13:22:12;21.65;;;12.07;;
22131;SDS011;11232;51.748;19.390;2022-10-17T13:24:44;17.83;;;11.43;;
22131;SDS011;11232;51.748;19.390;2022-10-17T13:27:24;15.48;;;11.70;;
22131;SDS011;11232;51.748;19.390;2022-10-17T13:29:55;19.75;;;11.50;;
22131;SDS011;11232;51.748;19.390;2022-10-17T13:32:22;17.20;;;11.40;;
22131;SDS011;11232;51.748;19.390;2022-10-17T13:35:49;18.48;;;11.60;;
22131;SDS011;11232;51.748;19.390;2022-10-17T13:37:49;15.00;;;11.02;;
22131;SDS011;11232;51.748;19.390;2022-10-17T13:40:25;14.60;;;11.07;;
22131;SDS011;11232;51.748;19.390;2022-10-17T13:42:52;18.27;;;11.25;;
22131;SDS011;11232;51.748;19.390;2022-10-17T13:45:31;15.93;;;10.98;;
22131;SDS011;11232;51.748;19.390;2022-10-17T13:48:02;18.10;;;11.20;;
22131;SDS011;11232;51.748;19.390;2022-10-17T13:53:14;16.35;;;10.45;;
22131;SDS011;11232;51.748;19.390;2022-10-17T13:55:50;16.08;;;11.25;;
22131;SDS011;11232;51.748;19.390;2022-10-17T13:58:41;19.02;;;11.43;;
22131;SDS011;11232;51.748;19.390;2022-10-17T14:01:08;15.98;;;10.88;;
22131;SDS011;11232;51.748;19.390;2022-10-17T14:03:35;20.17;;;11.02;;
22131;SDS011;11232;51.748;19.390;2022-10-17T14:11:26;17.20;;;10.70;;
22131;SDS011;11232;51.748;19.390;2022-10-17T14:14:00;15.55;;;11.02;;
22131;SDS011;11232;51.748;19.390;2022-10-17T14:16:40;21.20;;;11.10;;
22131;SDS011;11232;51.748;19.390;2022-10-17T14:19:15;16.02;;;9.95;;
22131;SDS011;11232;51.748;19.390;2022-10-17T14:21:51;18.00;;;11.68;;
22131;SDS011;11232;51.748;19.390;2022-10-17T14:26:50;17.40;;;11.00;;
22131;SDS011;11232;51.748;19.390;2022-10-17T14:31:55;20.02;;;10.82;;
22131;SDS011;11232;51.748;19.390;2022-10-17T14:34:35;18.83;;;10.90;;
22131;SDS011;11232;51.748;19.390;2022-10-17T14:37:09;15.65;;;10.45;;
22131;SDS011;11232;51.748;19.390;2022-10-17T14:39:52;17.40;;;11.43;;
22131;SDS011;11232;51.748;19.390;2022-10-17T14:42:19;19.23;;;10.90;;
22131;SDS011;11232;51.748;19.390;2022-10-17T14:44:50;28.85;;;12.50;;
22131;SDS011;11232;51.748;19.390;2022-10-17T14:47:21;17.50;;;11.82;;
22131;SDS011;11232;51.748;19.390;2022-10-17T14:49:51;20.23;;;11.30;;
22131;SDS011;11232;51.748;19.390;2022-10-17T14:52:29;19.35;;;10.85;;
22131;SDS011;11232;51.748;19.390;2022-10-17T14:54:56;19.55;;;11.68;;
22131;SDS011;11232;51.748;19.390;2022-10-17T14:59:57;22.48;;;11.45;;
22131;SDS011;11232;51.748;19.390;2022-10-17T15:02:27;23.23;;;12.07;;
22131;SDS011;11232;51.748;19.390;2022-10-17T15:04:53;23.80;;;11.35;;
22131;SDS011;11232;51.748;19.390;2022-10-17T15:07:19;17.02;;;10.55;;
22131;SDS011;11232;51.748;19.390;2022-10-17T15:09:47;19.05;;;11.52;;
22131;SDS011;11232;51.748;19.390;2022-10-17T15:12:15;20.13;;;11.25;;
22131;SDS011;11232;51.748;19.390;2022-10-17T15:14:43;21.55;;;11.25;;
22131;SDS011;11232;51.748;19.390;2022-10-17T15:17:13;19.27;;;11.40;;
22131;SDS011;11232;51.748;19.390;2022-10-17T15:19:44;24.80;;;11.48;;
22131;SDS011;11232;51.748;19.390;2022-10-17T15:22:10;21.30;;;10.95;;
22131;SDS011;11232;51.748;19.390;2022-10-17T15:24:36;18.13;;;10.73;;
22131;SDS011;11232;51.748;19.390;2022-10-17T15:27:02;20.17;;;11.35;;
22131;SDS011;11232;51.748;19.390;2022-10-17T15:29:37;22.00;;;11.43;;
22131;SDS011;11232;51.748;19.390;2022-10-17T15:32:03;22.92;;;11.35;;
22131;SDS011;11232;51.748;19.390;2022-10-17T15:34:28;21.50;;;11.90;;
22131;SDS011;11232;51.748;19.390;2022-10-17T15:36:54;18.02;;;11.85;;
22131;SDS011;11232;51.748;19.390;2022-10-17T15:39:19;17.75;;;11.00;;
22131;SDS011;11232;51.748;19.390;2022-10-17T15:41:45;16.45;;;10.30;;
22131;SDS011;11232;51.748;19.390;2022-10-17T15:44:12;21.20;;;11.23;;
22131;SDS011;11232;51.748;19.390;2022-10-17T15:46:38;24.13;;;11.32;;
22131;SDS011;11232;51.748;19.390;2022-10-17T15:49:05;23.02;;;12.18;;
22131;SDS011;11232;51.748;19.390;2022-10-17T15:51:36;19.60;;;11.70;;
22131;SDS011;11232;51.748;19.390;2022-10-17T15:54:01;17.10;;;11.77;;
22131;SDS011;11232;51.748;19.390;2022-10-17T15:56:39;24.70;;;12.65;;
22131;SDS011;11232;51.748;19.390;2022-10-17T15:59:13;20.35;;;12.27;;
22131;SDS011;11232;51.748;19.390;2022-10-17T16:01:41;22.85;;;12.60;;
22131;SDS011;11232;51.748;19.390;2022-10-17T16:04:11;21.83;;;12.23;;
22131;SDS011;11232;51.748;19.390;2022-10-17T16:06:38;31.50;;;13.48;;
22131;SDS011;11232;51.748;19.390;2022-10-17T16:09:04;20.63;;;12.45;;
22131;SDS011;11232;51.748;19.390;2022-10-17T16:11:30;21.67;;;12.98;;
22131;SDS011;11232;51.748;19.390;2022-10-17T16:13:59;21.58;;;12.77;;
22131;SDS011;11232;51.748;19.390;2022-10-17T16:16:27;26.63;;;13.73;;
22131;SDS011;11232;51.748;19.390;2022-10-17T16:18:53;29.85;;;14.68;;
22131;SDS011;11232;51.748;19.390;2022-10-17T16:21:19;29.20;;;14.40;;
22131;SDS011;11232;51.748;19.390;2022-10-17T16:23:49;26.67;;;15.13;;